Benbecula, Benbecula Airport (EGPL)

NameBenbecula Airport
CityBenbecula
CountryUnited Kingdom
ICAOEGPL
IATABEB
Altitude6 m
CoordinatesGoogle Map
Live Air TrafficLiveATC.net
METAREGPL 201650Z 20012KT 9999 SCT030 09/08 Q1004
2019-02-20 16:50:00 Wind: South (200°) 6.17 m/s - Visibility: > 10000 m - Temperature: 9 °C - Dew point: 8 °C - Humidity: 93.5% - Pressure: 1004 hPa
Statistics

The table below shows the detailed information of all flights to/from Benbecula, Benbecula Airport (EGPL).

Ident Aircraft Coming fromFrom Going toTo Owner nameOwnerSpotted durationDurationDate
G-SASD - BE20 - Gama Aviation (UK) GMA089B RAYTHEON 200 Super King Air BE20 Benbecula, United Kingdom (EGPL) EGPL
92 km
Glasgow, United Kingdom (EGPF) EGPF
259 km
Gama Aviation Gama Aviation - - Sun, 17 Feb 2019 14:30:59 +0000 17/2/2019 2:30 pm
G-SASD - BE20 - Gama Aviation (UK) GMA089B RAYTHEON 200 Super King Air BE20 Benbecula, United Kingdom (EGPL) EGPL
102 km
Scheduled : Glasgow, United Kingdom (EGPF)
Real: Stornoway,United Kingdom (EGPO) Scheduled: EGPO Real: Stornoway,United Kingdom (EGPO)
Gama Aviation Gama Aviation 00:34:05 00:34:05 Sun, 17 Feb 2019 10:26:56 +0000 17/2/2019 10:26 am
Sun, 17 Feb 2019 11:01:01 +0000 17/2/2019 11:01 am
G-SASC - BE20 - Gama Aviation (UK) GMA984 RAYTHEON 200 Super King Air BE20 Benbecula, United Kingdom (EGPL) EGPL
343 km
Inverness, United Kingdom (EGPE) EGPE
240 km
Gama Aviation Gama Aviation - - Tue, 01 Jan 2019 12:43:20 +0000 1/1/2019 12:43 pm